createdAt,value
2022-12-31T00:00:49.321Z,1.10
2022-12-31T00:03:19.281Z,1.93
2022-12-31T00:05:46.323Z,1.17
2022-12-31T00:08:13.597Z,1.53
2022-12-31T00:10:41.756Z,0.63
2022-12-31T00:13:11.035Z,2.27
2022-12-31T00:15:39.864Z,1.10
2022-12-31T00:18:10.738Z,0.73
2022-12-31T00:20:42.029Z,1.40
2022-12-31T00:23:10.729Z,0.50
2022-12-31T00:25:37.919Z,1.50
2022-12-31T00:28:05.671Z,0.60
2022-12-31T00:30:41.732Z,0.50
2022-12-31T00:33:08.785Z,0.57
2022-12-31T00:35:36.668Z,0.70
2022-12-31T00:38:06.476Z,1.80
2022-12-31T00:40:36.151Z,0.60
2022-12-31T00:43:03.076Z,0.57
2022-12-31T00:45:30.043Z,0.47
2022-12-31T00:47:57.010Z,1.70
2022-12-31T00:50:24.039Z,1.53
2022-12-31T00:52:51.617Z,0.90
2022-12-31T00:55:18.577Z,1.63
2022-12-31T00:57:47.787Z,1.30
2022-12-31T01:00:16.034Z,2.77
2022-12-31T01:02:43.079Z,1.70
2022-12-31T01:05:10.335Z,0.90
2022-12-31T01:07:38.397Z,0.77
2022-12-31T01:10:07.994Z,0.40
2022-12-31T01:12:34.973Z,1.20
2022-12-31T01:15:02.063Z,0.90
2022-12-31T01:17:29.155Z,1.27
2022-12-31T01:19:56.099Z,1.10
2022-12-31T01:22:23.056Z,1.40
2022-12-31T01:24:49.988Z,1.90
2022-12-31T01:27:16.952Z,0.90
2022-12-31T01:29:43.927Z,0.67
2022-12-31T01:32:10.854Z,0.97
2022-12-31T01:34:37.795Z,1.40
2022-12-31T01:37:04.723Z,1.50
2022-12-31T01:39:31.743Z,1.10
2022-12-31T01:42:01.313Z,0.77
2022-12-31T01:44:28.232Z,1.30
2022-12-31T01:47:00.151Z,2.90
2022-12-31T01:49:36.668Z,1.17
2022-12-31T01:52:17.227Z,0.70
2022-12-31T01:55:30.314Z,0.57
2022-12-31T01:58:08.933Z,0.50
2022-12-31T02:00:36.209Z,0.40
2022-12-31T02:03:05.885Z,0.43
2022-12-31T02:05:39.580Z,0.40
2022-12-31T02:08:07.713Z,1.57
2022-12-31T02:10:56.671Z,0.40
2022-12-31T02:13:24.388Z,1.60
2022-12-31T02:16:44.957Z,0.30
2022-12-31T02:19:33.787Z,1.03
2022-12-31T02:22:14.895Z,5.17
2022-12-31T02:25:01.598Z,8.27
2022-12-31T02:27:38.236Z,2.90
2022-12-31T02:30:17.857Z,7.50
2022-12-31T02:33:10.018Z,0.83
2022-12-31T02:35:57.031Z,0.93
2022-12-31T02:38:46.802Z,8.87
2022-12-31T02:41:35.734Z,3.07
2022-12-31T02:44:24.141Z,3.43
2022-12-31T02:47:20.978Z,2.57
2022-12-31T02:50:23.793Z,4.20
2022-12-31T02:53:24.886Z,2.40
2022-12-31T02:56:32.341Z,4.00
2022-12-31T02:59:27.176Z,9.27
2022-12-31T03:02:16.637Z,7.33
2022-12-31T03:04:50.907Z,4.07
2022-12-31T03:07:25.828Z,6.07
2022-12-31T03:09:53.429Z,9.47
2022-12-31T03:12:42.273Z,6.93
2022-12-31T03:15:19.941Z,5.93
2022-12-31T03:17:51.793Z,3.97
2022-12-31T03:20:38.686Z,5.10
2022-12-31T03:23:11.936Z,3.90
2022-12-31T03:25:39.084Z,4.53
2022-12-31T03:28:11.123Z,3.60
2022-12-31T03:30:42.571Z,5.30
2022-12-31T03:33:09.580Z,5.30
2022-12-31T03:35:43.865Z,5.90
2022-12-31T03:38:11.264Z,5.37
2022-12-31T03:40:43.103Z,10.43
2022-12-31T03:43:10.154Z,6.93
2022-12-31T03:45:38.015Z,5.97
2022-12-31T03:48:10.641Z,4.23
2022-12-31T03:50:39.740Z,4.50
2022-12-31T03:53:06.734Z,4.03
2022-12-31T03:55:33.714Z,3.97
2022-12-31T03:58:00.800Z,7.03
2022-12-31T04:00:27.944Z,3.95
2022-12-31T04:02:55.309Z,7.47
2022-12-31T04:05:23.456Z,4.07
2022-12-31T04:07:52.228Z,2.40
2022-12-31T04:10:20.481Z,4.22
2022-12-31T04:12:47.839Z,2.97
2022-12-31T04:15:21.054Z,6.33
2022-12-31T04:17:49.005Z,5.05
2022-12-31T04:20:16.829Z,2.25
2022-12-31T04:22:44.383Z,1.30
2022-12-31T04:25:12.948Z,7.07
2022-12-31T04:27:41.521Z,4.85
2022-12-31T04:30:12.444Z,2.33
2022-12-31T04:32:39.965Z,3.80
2022-12-31T04:35:08.051Z,3.00
2022-12-31T04:37:35.015Z,2.65
2022-12-31T04:40:06.214Z,4.70
2022-12-31T04:42:35.222Z,2.93
2022-12-31T04:45:02.291Z,1.80
2022-12-31T04:47:29.370Z,1.70
2022-12-31T04:49:56.470Z,1.35
2022-12-31T04:52:23.580Z,2.10
2022-12-31T04:54:50.599Z,2.20
2022-12-31T04:57:21.121Z,3.58
2022-12-31T04:59:48.188Z,1.77
2022-12-31T05:02:15.303Z,3.65
2022-12-31T05:04:42.428Z,1.92
2022-12-31T05:07:09.400Z,2.67
2022-12-31T05:09:36.562Z,3.00
2022-12-31T05:12:03.779Z,2.65
2022-12-31T05:14:30.806Z,1.70
2022-12-31T05:16:58.733Z,2.10
2022-12-31T05:19:25.776Z,2.35
2022-12-31T05:22:11.512Z,2.33
2022-12-31T05:24:39.268Z,3.28
2022-12-31T05:27:06.241Z,2.58
2022-12-31T05:29:33.352Z,1.40
2022-12-31T05:32:00.286Z,2.90
2022-12-31T05:34:27.204Z,2.15
2022-12-31T05:36:57.796Z,4.28
2022-12-31T05:39:24.729Z,2.70
2022-12-31T05:41:51.703Z,1.13
2022-12-31T05:44:18.701Z,2.15
2022-12-31T05:46:47.000Z,3.47
2022-12-31T05:49:14.047Z,2.25
2022-12-31T05:51:41.009Z,1.83
2022-12-31T05:54:07.953Z,3.05
2022-12-31T05:56:34.983Z,3.60
2022-12-31T05:59:01.927Z,2.97
2022-12-31T06:01:28.913Z,1.23
2022-12-31T06:03:57.072Z,2.95
2022-12-31T06:06:24.000Z,5.95
2022-12-31T06:08:52.009Z,3.70
2022-12-31T06:11:19.110Z,4.57
2022-12-31T06:13:46.494Z,3.15
2022-12-31T06:16:13.772Z,4.78
2022-12-31T06:18:41.160Z,4.43
2022-12-31T06:21:08.144Z,17.92
2022-12-31T06:23:35.089Z,3.15
2022-12-31T06:26:05.770Z,7.93
2022-12-31T06:28:33.097Z,8.88
2022-12-31T06:31:01.970Z,4.03
2022-12-31T06:33:29.185Z,3.10
2022-12-31T06:36:01.891Z,7.07
2022-12-31T06:38:31.525Z,6.00
2022-12-31T06:40:58.468Z,4.22
2022-12-31T06:43:25.503Z,3.80
2022-12-31T06:45:52.451Z,7.38
2022-12-31T06:48:19.419Z,6.03
2022-12-31T06:50:46.390Z,5.97
2022-12-31T06:53:13.320Z,3.70
2022-12-31T06:55:40.723Z,3.80
2022-12-31T06:58:14.026Z,5.75
2022-12-31T07:01:00.144Z,4.68
2022-12-31T07:04:13.652Z,7.00
2022-12-31T07:06:54.250Z,3.13
2022-12-31T07:09:52.932Z,4.47
2022-12-31T07:13:12.432Z,5.55
2022-12-31T07:16:12.774Z,4.78
2022-12-31T07:19:12.191Z,4.60
2022-12-31T07:21:41.738Z,5.40
2022-12-31T07:24:10.840Z,9.07
2022-12-31T07:27:11.729Z,5.82
2022-12-31T07:30:15.220Z,4.45
2022-12-31T07:33:36.452Z,8.18
2022-12-31T07:36:50.783Z,6.00
2022-12-31T07:39:30.908Z,4.00
2022-12-31T07:42:22.551Z,7.45
2022-12-31T07:45:03.745Z,2.55
2022-12-31T07:47:31.817Z,4.18
2022-12-31T07:49:59.228Z,4.00
2022-12-31T07:52:27.165Z,4.55
2022-12-31T07:54:54.139Z,4.30
2022-12-31T07:57:26.566Z,4.90
2022-12-31T08:00:07.280Z,3.08
2022-12-31T08:03:04.151Z,3.10
2022-12-31T08:06:05.494Z,6.10
2022-12-31T08:09:32.110Z,7.72
2022-12-31T08:12:01.328Z,6.93
2022-12-31T08:14:30.234Z,3.53
2022-12-31T08:16:58.124Z,4.65
2022-12-31T08:19:31.809Z,4.25
2022-12-31T08:22:53.452Z,4.22
2022-12-31T08:25:37.370Z,3.58
2022-12-31T08:28:38.030Z,5.90
2022-12-31T08:31:15.765Z,5.75
2022-12-31T08:33:42.755Z,4.13
2022-12-31T08:36:42.317Z,5.97
2022-12-31T08:39:39.620Z,5.38
2022-12-31T08:42:43.815Z,5.55
2022-12-31T08:45:43.546Z,6.85
2022-12-31T08:48:29.797Z,8.77
2022-12-31T08:50:57.201Z,6.18
2022-12-31T08:53:24.663Z,4.43
2022-12-31T08:56:05.678Z,6.70
2022-12-31T08:58:48.396Z,5.22
2022-12-31T09:01:19.070Z,5.43
2022-12-31T09:04:11.303Z,7.55
2022-12-31T09:06:56.609Z,7.22
2022-12-31T09:10:04.717Z,8.18
2022-12-31T09:13:22.416Z,10.88
2022-12-31T09:16:01.472Z,5.90
2022-12-31T09:18:33.310Z,7.32
2022-12-31T09:21:00.876Z,6.97
2022-12-31T09:23:28.189Z,8.05
2022-12-31T09:26:19.944Z,6.20
2022-12-31T09:29:04.768Z,8.25
2022-12-31T09:31:57.006Z,9.07
2022-12-31T09:34:33.757Z,5.85
2022-12-31T09:37:10.695Z,9.27
2022-12-31T09:39:47.997Z,4.78
2022-12-31T09:42:47.416Z,9.27
2022-12-31T09:45:57.671Z,8.02
2022-12-31T09:48:51.492Z,6.30
2022-12-31T09:51:55.085Z,7.28
2022-12-31T09:54:49.170Z,7.22
2022-12-31T09:58:04.413Z,6.40
2022-12-31T10:00:52.769Z,8.82
2022-12-31T10:03:34.731Z,5.40
2022-12-31T10:06:20.278Z,9.10
2022-12-31T10:09:28.258Z,7.35
2022-12-31T10:12:19.171Z,9.70
2022-12-31T10:15:09.377Z,5.68
2022-12-31T10:18:16.465Z,9.13
2022-12-31T10:21:16.932Z,7.13
2022-12-31T10:23:49.772Z,12.55
2022-12-31T10:26:35.665Z,8.73
2022-12-31T10:29:43.122Z,7.63
2022-12-31T10:32:31.029Z,8.15
2022-12-31T10:35:28.989Z,7.50
2022-12-31T10:38:26.353Z,5.85
2022-12-31T10:41:45.895Z,7.10
2022-12-31T10:44:56.823Z,8.05
2022-12-31T10:48:13.430Z,11.82
2022-12-31T10:51:06.332Z,9.50
2022-12-31T10:54:10.730Z,10.27
2022-12-31T10:56:52.730Z,5.18
2022-12-31T10:59:56.668Z,6.32
2022-12-31T11:02:29.532Z,6.88
2022-12-31T11:05:51.941Z,6.30
2022-12-31T11:09:03.614Z,13.10
2022-12-31T11:12:16.032Z,9.07
2022-12-31T11:15:18.766Z,11.27
2022-12-31T11:18:13.256Z,12.38
2022-12-31T11:21:00.808Z,8.77
2022-12-31T11:23:51.464Z,11.02
2022-12-31T11:26:46.072Z,9.32
2022-12-31T11:29:48.737Z,11.93
2022-12-31T11:32:58.587Z,6.20
2022-12-31T11:36:05.134Z,9.38
2022-12-31T11:38:57.999Z,10.80
2022-12-31T11:41:38.374Z,6.55
2022-12-31T11:44:23.692Z,14.85
2022-12-31T11:47:05.525Z,11.10
2022-12-31T11:49:45.325Z,8.48
2022-12-31T11:52:40.219Z,9.52
2022-12-31T11:55:50.776Z,8.52
2022-12-31T11:58:28.687Z,8.23
2022-12-31T12:01:22.798Z,7.38
2022-12-31T12:03:50.693Z,6.00
2022-12-31T12:06:25.596Z,5.40
2022-12-31T12:08:54.745Z,7.80
2022-12-31T12:11:28.920Z,7.05
2022-12-31T12:13:56.753Z,10.73
2022-12-31T12:16:25.773Z,14.18
2022-12-31T12:19:06.111Z,5.47
2022-12-31T12:21:34.294Z,10.13
2022-12-31T12:24:27.185Z,7.18
2022-12-31T12:26:54.800Z,5.75
2022-12-31T12:29:34.146Z,8.25
2022-12-31T12:32:26.408Z,7.35
2022-12-31T12:34:54.119Z,9.35
2022-12-31T12:37:34.474Z,12.75
2022-12-31T12:40:34.621Z,10.35
2022-12-31T12:43:03.314Z,9.02
2022-12-31T12:45:47.658Z,15.68
2022-12-31T12:48:42.414Z,12.23
2022-12-31T12:51:51.828Z,11.15
2022-12-31T12:54:34.335Z,10.05
2022-12-31T12:57:13.020Z,11.10
2022-12-31T13:00:16.738Z,8.10
2022-12-31T13:03:32.327Z,17.42
2022-12-31T13:06:26.698Z,15.73
2022-12-31T13:09:24.697Z,16.75
2022-12-31T13:12:08.121Z,16.83
2022-12-31T13:14:35.033Z,11.27
2022-12-31T13:17:45.218Z,17.45
2022-12-31T13:20:38.263Z,11.35
2022-12-31T13:23:05.242Z,19.90
2022-12-31T13:26:13.206Z,13.75
2022-12-31T13:28:42.916Z,10.75
2022-12-31T13:31:15.386Z,12.10
2022-12-31T13:33:55.552Z,12.45
2022-12-31T13:36:25.806Z,10.55
2022-12-31T13:38:54.860Z,11.00
2022-12-31T13:41:34.248Z,13.05
2022-12-31T13:44:33.209Z,10.43
2022-12-31T13:47:14.450Z,9.65
2022-12-31T13:49:53.263Z,8.45
2022-12-31T13:52:44.287Z,11.43
2022-12-31T13:55:15.982Z,11.32
2022-12-31T13:58:12.571Z,11.35
2022-12-31T14:00:58.857Z,13.48
2022-12-31T14:04:03.930Z,10.48
2022-12-31T14:06:41.633Z,10.52
2022-12-31T14:09:20.906Z,10.50
2022-12-31T14:12:34.493Z,12.40
2022-12-31T14:15:31.415Z,10.35
2022-12-31T14:18:23.124Z,13.80
2022-12-31T14:20:59.161Z,11.18
2022-12-31T14:24:22.593Z,12.13
2022-12-31T14:26:57.942Z,9.05
2022-12-31T14:29:48.937Z,14.02
2022-12-31T14:32:38.881Z,13.15
2022-12-31T14:35:39.909Z,8.80
2022-12-31T14:38:33.596Z,10.43
2022-12-31T14:41:28.983Z,8.68
2022-12-31T14:44:20.112Z,14.30
2022-12-31T14:47:08.447Z,11.10
2022-12-31T14:49:53.455Z,8.13
2022-12-31T14:52:23.162Z,8.43
2022-12-31T14:55:07.143Z,9.88
2022-12-31T14:58:01.575Z,14.20
2022-12-31T15:00:32.928Z,8.52
2022-12-31T15:03:04.636Z,8.77
2022-12-31T15:05:35.954Z,14.05
2022-12-31T15:09:08.296Z,8.63
2022-12-31T15:12:45.493Z,10.55
2022-12-31T15:15:21.344Z,10.60
2022-12-31T15:18:26.459Z,7.82
2022-12-31T15:21:22.246Z,8.63
2022-12-31T15:23:49.914Z,8.52
2022-12-31T15:26:31.855Z,11.25
2022-12-31T15:29:06.001Z,9.88
2022-12-31T15:31:35.659Z,9.63
2022-12-31T15:34:20.949Z,10.05
2022-12-31T15:36:55.827Z,9.25
2022-12-31T15:39:30.672Z,8.13
2022-12-31T15:44:56.625Z,8.57
2022-12-31T15:47:40.118Z,9.32
2022-12-31T15:50:23.243Z,8.75
2022-12-31T15:52:54.307Z,8.55
2022-12-31T15:55:34.153Z,10.70
2022-12-31T15:58:11.048Z,10.30
2022-12-31T16:01:09.923Z,10.10
2022-12-31T16:03:37.181Z,11.18
2022-12-31T16:06:12.306Z,8.98
2022-12-31T16:08:44.439Z,9.10
2022-12-31T16:11:11.860Z,8.05
2022-12-31T16:13:47.688Z,8.70
2022-12-31T16:16:31.456Z,10.20
2022-12-31T16:18:59.506Z,10.57
2022-12-31T16:21:35.235Z,9.55
2022-12-31T16:24:29.575Z,9.50
2022-12-31T16:27:12.253Z,8.52
2022-12-31T16:29:50.617Z,8.85
2022-12-31T16:32:21.879Z,8.77
2022-12-31T16:34:48.839Z,10.82
2022-12-31T16:37:19.792Z,7.97
2022-12-31T16:39:58.941Z,15.27
2022-12-31T16:42:29.486Z,9.60
2022-12-31T16:44:58.030Z,11.52
2022-12-31T16:47:38.257Z,5.88
2022-12-31T16:50:25.288Z,12.85
2022-12-31T16:53:04.278Z,11.52
2022-12-31T16:55:32.738Z,11.27
2022-12-31T16:58:36.013Z,8.15
2022-12-31T17:01:18.734Z,8.73
2022-12-31T17:03:52.889Z,10.70
2022-12-31T17:06:21.606Z,8.45
2022-12-31T17:09:04.552Z,7.53
2022-12-31T17:11:34.963Z,11.18
2022-12-31T17:14:08.266Z,7.68
2022-12-31T17:17:03.350Z,9.95
2022-12-31T17:19:50.700Z,11.77
2022-12-31T17:22:37.282Z,10.75
2022-12-31T17:25:07.430Z,8.85
2022-12-31T17:27:36.064Z,7.93
2022-12-31T17:30:27.639Z,11.00
2022-12-31T17:33:13.342Z,8.20
2022-12-31T17:35:43.933Z,10.45
2022-12-31T17:38:22.958Z,12.02
2022-12-31T17:41:14.781Z,12.52
2022-12-31T17:43:42.637Z,8.02
2022-12-31T17:46:13.420Z,9.45
2022-12-31T17:48:41.087Z,12.48
2022-12-31T17:51:08.118Z,11.70
2022-12-31T17:53:35.400Z,13.73
2022-12-31T17:56:06.309Z,9.45
2022-12-31T17:58:42.686Z,13.80
2022-12-31T18:01:12.157Z,12.75
2022-12-31T18:03:39.169Z,7.90
2022-12-31T18:06:09.172Z,13.60
2022-12-31T18:08:40.113Z,7.13
2022-12-31T18:11:11.048Z,13.70
2022-12-31T18:13:38.129Z,19.75
2022-12-31T18:16:05.629Z,9.43
2022-12-31T18:18:35.875Z,13.70
2022-12-31T18:21:27.477Z,7.78
2022-12-31T18:26:25.204Z,9.48
2022-12-31T18:28:52.492Z,11.75
2022-12-31T18:31:26.899Z,11.52
2022-12-31T18:33:56.432Z,12.40
2022-12-31T18:36:25.504Z,13.43
2022-12-31T18:38:53.413Z,11.38
2022-12-31T18:41:29.579Z,10.65
2022-12-31T18:43:56.669Z,11.52
2022-12-31T18:46:24.969Z,8.88
2022-12-31T18:48:51.970Z,9.13
2022-12-31T18:51:31.292Z,10.23
2022-12-31T18:54:00.405Z,12.25
2022-12-31T18:56:28.303Z,6.78
2022-12-31T18:58:55.723Z,10.93
2022-12-31T19:01:36.216Z,8.23
2022-12-31T19:04:13.425Z,18.52
2022-12-31T19:06:40.898Z,10.07
2022-12-31T19:09:23.674Z,16.52
2022-12-31T19:11:54.784Z,10.48
2022-12-31T19:14:24.391Z,10.07
2022-12-31T19:16:54.281Z,8.77
2022-12-31T19:19:21.865Z,8.30
2022-12-31T19:21:48.859Z,13.25
2022-12-31T19:24:20.438Z,7.68
2022-12-31T19:26:48.215Z,10.80
2022-12-31T19:29:19.852Z,7.18
2022-12-31T19:31:47.201Z,12.50
2022-12-31T19:34:14.463Z,8.75
2022-12-31T19:36:44.258Z,9.80
2022-12-31T19:39:17.164Z,8.40
2022-12-31T19:41:51.474Z,11.27
2022-12-31T19:44:23.360Z,12.63
2022-12-31T19:46:50.377Z,13.80
2022-12-31T19:49:17.387Z,7.10
2022-12-31T19:51:44.358Z,9.63
2022-12-31T19:54:13.595Z,10.77
2022-12-31T19:56:41.100Z,8.73
2022-12-31T19:59:10.298Z,9.90
2022-12-31T20:01:37.916Z,10.65
2022-12-31T20:04:05.134Z,10.63
2022-12-31T20:06:32.238Z,8.55
2022-12-31T20:08:59.287Z,7.88
2022-12-31T20:11:26.536Z,12.35
2022-12-31T20:13:54.049Z,10.55
2022-12-31T20:16:24.628Z,9.73
2022-12-31T20:18:51.703Z,7.15
2022-12-31T20:21:25.771Z,10.30
2022-12-31T20:23:55.023Z,13.13
2022-12-31T20:26:23.992Z,13.25
2022-12-31T20:28:51.223Z,7.65
2022-12-31T20:31:22.362Z,11.40
2022-12-31T20:33:49.550Z,10.65
2022-12-31T20:36:17.870Z,9.98
2022-12-31T20:38:45.973Z,10.23
2022-12-31T20:41:17.029Z,14.77
2022-12-31T20:43:44.890Z,13.63
2022-12-31T20:46:15.597Z,13.55
2022-12-31T20:48:44.423Z,8.32
2022-12-31T20:51:13.126Z,8.00
2022-12-31T20:53:40.404Z,6.93
2022-12-31T20:56:09.640Z,13.30
2022-12-31T20:58:37.208Z,8.70
2022-12-31T21:01:07.546Z,9.77
2022-12-31T21:06:28.740Z,12.13
2022-12-31T21:09:01.312Z,15.55
2022-12-31T21:11:46.969Z,8.15
2022-12-31T21:14:14.071Z,12.77
2022-12-31T21:16:41.070Z,12.18
2022-12-31T21:19:09.819Z,8.05
2022-12-31T21:21:37.413Z,8.82
2022-12-31T21:24:08.469Z,8.63
2022-12-31T21:26:35.552Z,10.20
2022-12-31T21:29:02.607Z,14.02
2022-12-31T21:31:29.625Z,12.98
2022-12-31T21:33:59.388Z,7.95
2022-12-31T21:36:26.352Z,13.85
2022-12-31T21:38:53.340Z,12.98
2022-12-31T21:41:39.048Z,15.52
2022-12-31T21:44:06.125Z,7.25
2022-12-31T21:46:33.114Z,14.27
2022-12-31T21:49:01.028Z,11.35
2022-12-31T21:51:29.104Z,10.05
2022-12-31T21:53:56.845Z,16.73
2022-12-31T21:56:23.973Z,9.73
2022-12-31T21:59:15.394Z,11.30
2022-12-31T22:02:01.247Z,13.73
2022-12-31T22:05:00.837Z,12.18
2022-12-31T22:07:15.631Z,8.80
2022-12-31T22:09:42.598Z,8.25
2022-12-31T22:12:09.568Z,11.00
2022-12-31T22:14:36.516Z,13.48
2022-12-31T22:17:03.516Z,13.90
2022-12-31T22:19:30.461Z,13.82
2022-12-31T22:21:57.447Z,12.73
2022-12-31T22:24:24.408Z,15.32
2022-12-31T22:26:52.184Z,12.50
2022-12-31T22:29:19.823Z,10.85
2022-12-31T22:31:46.972Z,12.68
2022-12-31T22:34:13.927Z,11.98
2022-12-31T22:36:40.921Z,8.43
2022-12-31T22:39:43.848Z,8.63
2022-12-31T22:42:02.150Z,15.77
2022-12-31T22:44:29.296Z,8.50
2022-12-31T22:46:56.360Z,14.60
2022-12-31T22:49:23.442Z,13.30
2022-12-31T22:51:57.757Z,21.00
2022-12-31T22:54:27.778Z,9.63
2022-12-31T22:56:55.102Z,10.10
2022-12-31T22:59:23.872Z,16.05
2022-12-31T23:01:50.842Z,8.85
2022-12-31T23:04:17.896Z,12.27
2022-12-31T23:06:45.037Z,9.07
2022-12-31T23:09:34.133Z,14.07
2022-12-31T23:12:01.456Z,8.50
2022-12-31T23:14:46.899Z,9.50
2022-12-31T23:17:38.632Z,9.93
2022-12-31T23:20:30.359Z,10.13
2022-12-31T23:23:07.674Z,12.23
2022-12-31T23:25:47.194Z,7.25
2022-12-31T23:28:18.562Z,11.43
2022-12-31T23:30:48.860Z,10.65
2022-12-31T23:33:20.204Z,9.25
2022-12-31T23:35:47.454Z,9.85
2022-12-31T23:38:20.709Z,11.48
2022-12-31T23:40:50.858Z,10.05
2022-12-31T23:43:22.618Z,13.27
2022-12-31T23:45:53.257Z,8.00
2022-12-31T23:48:20.370Z,8.20
2022-12-31T23:50:53.329Z,9.43
2022-12-31T23:53:24.625Z,10.52
2022-12-31T23:55:52.843Z,9.25
2022-12-31T23:58:21.078Z,11.77
